Hanford, CA (93230)

12:26 AM PST on January 26, 2015 (GMT -0800)
North Hanford | Change Station
CLOSE
Current Station
Personal Weather Station
Location: Hanford, CA
Elevation: 249 ft
Nearby Weather Stations

Elev 249 ft 36.36 °N, 119.66 °W | Updated 4 minutes ago

Fog
Fog
37.0 °F
Feels Like 37 °F
N
0.0
Wind Variable Wind from NNE

Today
High -- | Low -- °F
--% Chance of Precip.
Yesterday
High -- | Low -- °F
Precip. -- in
7:04 AM 5:18 PM
Waxing Crescent, 41% visible
Pressure 30.11 in
Visibility 0.2 miles
Clouds
Windchill 37 °F
Dew Point 37 °F
Humidity 99%
Rainfall 0.00 in
Snow Depth Not available.
UV Not available.
Pollen 3.90 out of 12
Air Quality Not available.
Flu Activity Not available.
SPECI KHJO 260817Z AUTO 00000KT 1/4SM FG VV002 02/02 A3011 RMK AO2 T00220022

More Conditions Fewer Conditions

Pressure 30.11 in
Visibility 0.2 miles
Clouds
Windchill 37 °F
Dew Point 37 °F
Humidity 99%
Rainfall 0.00 in
Snow Depth Not available.
UV Not available.
Pollen 3.90 out of 12
Air Quality Not available.
Flu Activity Not available.
SPECI KHJO 260817Z AUTO 00000KT 1/4SM FG VV002 02/02 A3011 RMK AO2 T00220022

More Conditions Fewer Conditions

10-Day Weather Forecast

Almanac

Astronomy

Jan. 26, 2015 Rise Set
Actual Time
Civil Twilight
Nautical Twilight
Astronomical Twilight
Moon
Length of Visible Light
Length of Day
Tomorrow will be .
, % of the Moon is Illuminated

Today's Extremes

State Highs State Lows

Community

WunderPhotos

Upload Photos

1,790,163 photos uploaded!

WunderBlogs® & News

Nearby

Air Quality

  Air Quality AQ Index Pollutant
Not available.

Snow Depth

Station Depth Elevation

Earthquake Activity

City Distance Mag. Time & Date
Minimum magnitude displayed is 2.5.

Coastal Water Temperatures

Place Temperature

Nearby Weather Stations